Archival Weather

Abadan

Abadan, Iran (OIAA)

Report from: Tuesday, July 19, 2022 11:00 AM UTC
Current time: Tuesday, June 18, 2024 12:41 PM UTC

Current weather – Weather history – Daily summaries
Weather forecast

Temperature51.0°C (123.8°F)
Heat index44.9°C (112.9°F)
Dew point1.0°C (33.8°F)
Winds 8 kts (4.1 m/s, 9.2 mph) Northwest (310°)
Clouds Sky clear
Altimeter29.41 in.Hg (996 mB)
Relative humidity5 %
Density altitude4,635 ft. (1,413 m)
Remarks Ceiling and visibility OK
Flight conditions Visual Meteorological Conditions
Raw dataOIAA 191100Z 31008KT CAVOK 51/01 Q0996
An error has occurred. This application may no longer respond until reloaded. Reload 🗙